createdAt,value
2019-05-13T05:36:42.849Z,1026.32
2019-05-13T05:40:44.500Z,1026.25
2019-05-13T05:41:44.856Z,1026.22
2019-05-13T05:42:45.645Z,1026.28
2019-05-13T05:43:45.610Z,1026.24
2019-05-13T05:44:46.013Z,1026.25
2019-05-13T05:45:46.291Z,1026.27
2019-05-13T05:46:46.588Z,1026.29
2019-05-13T05:47:46.791Z,1026.31
2019-05-13T05:48:49.955Z,1026.30
2019-05-13T05:50:47.598Z,1026.30
2019-05-13T05:51:47.975Z,1026.23
2019-05-13T05:52:48.215Z,1026.26
2019-05-13T05:53:48.964Z,1026.26
2019-05-13T05:54:51.550Z,1026.15
2019-05-13T05:55:51.670Z,1026.10
2019-05-13T05:56:51.885Z,1026.17
2019-05-13T05:58:52.346Z,1026.25
2019-05-13T05:59:51.750Z,1026.26
2019-05-13T06:03:52.079Z,1026.29
2019-05-13T06:04:52.188Z,1026.30
2019-05-13T06:05:52.511Z,1026.35
2019-05-13T06:06:52.671Z,1026.27
2019-05-13T06:07:52.776Z,1026.28
2019-05-13T08:06:25.496Z,1026.19
2019-05-13T08:07:25.938Z,1026.23
2019-05-13T08:11:26.819Z,1026.19
2019-05-13T08:14:27.992Z,1026.25
2019-05-13T08:15:28.377Z,1026.24
2019-05-13T08:18:31.845Z,1026.21
2019-05-13T08:20:32.573Z,1026.23
2019-05-13T08:26:32.406Z,1026.12
2019-05-13T08:28:32.535Z,1026.18
2019-05-13T08:29:33.030Z,1026.21
2019-05-13T08:36:34.102Z,1026.26
2019-05-13T08:37:34.392Z,1026.13
2019-05-13T09:05:41.970Z,1026.00
2019-05-13T09:06:42.089Z,1025.94
2019-05-13T09:07:42.335Z,1025.99
2019-05-13T09:08:42.867Z,1025.95
2019-05-13T09:09:42.824Z,1025.94
2019-05-13T09:10:43.085Z,1025.93
2019-05-13T09:11:43.354Z,1025.91
2019-05-13T09:12:43.988Z,1025.98
2019-05-13T09:13:44.303Z,1025.92
2019-05-13T09:14:44.729Z,1025.98
2019-05-13T09:15:45.021Z,1025.88
2019-05-13T09:16:45.556Z,1025.97
2019-05-13T09:17:45.458Z,1025.93
2019-05-13T09:18:45.725Z,1025.97
2019-05-13T09:19:45.976Z,1025.85
2019-05-13T09:20:46.234Z,1025.90
2019-05-13T09:21:46.508Z,1025.91
2019-05-13T09:22:46.787Z,1025.84
2019-05-13T09:23:47.061Z,1025.93
2019-05-13T09:24:47.314Z,1026.00
2019-05-13T09:25:47.574Z,1025.95
2019-05-13T09:26:47.957Z,1025.86
2019-05-13T09:27:48.556Z,1025.86
2019-05-13T09:28:48.830Z,1025.84
2019-05-13T09:29:51.628Z,1025.80
2019-05-13T09:30:49.334Z,1025.77
2019-05-13T09:31:52.010Z,1025.80
2019-05-13T09:32:51.380Z,1025.84
2019-05-13T09:33:52.122Z,1025.77
2019-05-13T09:34:52.557Z,1025.74
2019-05-13T09:35:53.377Z,1025.76
2019-05-13T09:36:51.945Z,1025.83
2019-05-13T09:37:51.662Z,1025.77
2019-05-13T09:38:52.481Z,1025.77
2019-05-13T09:39:51.972Z,1025.77
2019-05-13T09:40:53.152Z,1025.84
2019-05-13T09:41:52.478Z,1025.76
2019-05-13T09:42:55.251Z,1025.83
2019-05-13T09:43:52.983Z,1025.84
2019-05-13T10:08:02.476Z,1025.57
2019-05-13T10:12:03.041Z,1025.65
2019-05-13T14:32:13.232Z,1023.39
2019-05-13T15:12:25.033Z,1023.12
2019-05-13T15:13:25.322Z,1023.27
2019-05-13T15:18:26.590Z,1023.07
2019-05-13T15:20:26.915Z,1023.04
2019-05-13T15:22:27.747Z,1023.13
2019-05-13T15:27:31.680Z,1023.08
2019-05-13T15:34:32.104Z,1022.99
2019-05-13T15:35:32.228Z,1023.00
2019-05-13T15:36:31.825Z,1023.01
2019-05-13T15:37:32.333Z,1022.89
2019-05-13T15:38:32.763Z,1023.05
2019-05-13T15:39:33.309Z,1023.01
2019-05-13T15:40:33.569Z,1023.00
2019-05-13T15:42:34.055Z,1022.98
2019-05-13T15:45:34.950Z,1023.00
2019-05-13T15:48:35.591Z,1022.99
2019-05-13T15:49:35.946Z,1022.92
2019-05-13T16:24:45.732Z,1022.80
2019-05-13T16:25:46.019Z,1022.76
2019-05-13T16:26:46.494Z,1022.76
2019-05-13T16:27:46.825Z,1022.65
2019-05-13T16:28:47.308Z,1022.63
2019-05-13T16:29:47.799Z,1022.78
2019-05-13T16:30:47.837Z,1022.71
2019-05-13T16:31:48.212Z,1022.76
2019-05-13T16:32:48.617Z,1022.78
2019-05-13T16:33:49.167Z,1022.71
2019-05-13T16:34:51.746Z,1022.72
2019-05-13T16:35:51.584Z,1022.81
2019-05-13T16:36:49.645Z,1022.78
2019-05-13T16:37:50.073Z,1022.68
2019-05-13T16:38:50.411Z,1022.76
2019-05-13T16:39:52.057Z,1022.69
2019-05-13T16:40:51.530Z,1022.67
2019-05-13T16:41:51.691Z,1022.75
2019-05-13T16:42:51.900Z,1022.73
2019-05-13T16:44:52.060Z,1022.74
2019-05-13T16:45:52.497Z,1022.73
2019-05-13T16:46:53.016Z,1022.74
2019-05-13T16:48:53.212Z,1022.67
2019-05-13T16:49:53.710Z,1022.72
2019-05-13T16:50:53.656Z,1022.69
2019-05-13T16:51:54.033Z,1022.69
2019-05-13T16:52:54.380Z,1022.70
2019-05-13T16:53:54.537Z,1022.59
2019-05-13T16:54:54.705Z,1022.62
2019-05-13T16:55:54.941Z,1022.63
2019-05-13T16:56:55.434Z,1022.72
2019-05-13T16:57:55.629Z,1022.61
2019-05-13T16:58:56.068Z,1022.60
2019-05-13T16:59:56.547Z,1022.68
2019-05-13T17:00:56.793Z,1022.61
2019-05-13T17:01:57.256Z,1022.74
2019-05-13T17:02:57.728Z,1022.65
2019-05-13T17:03:58.112Z,1022.69
2019-05-13T17:04:58.594Z,1022.69
2019-05-13T17:05:58.833Z,1022.67
2019-05-13T17:07:01.340Z,1022.69
2019-05-13T17:08:02.024Z,1022.71
2019-05-13T17:14:02.380Z,1022.72
2019-05-13T17:15:01.769Z,1022.62
2019-05-13T17:23:03.529Z,1022.66
2019-05-13T17:25:03.595Z,1022.72
2019-05-13T17:26:04.157Z,1022.62
2019-05-13T17:27:04.014Z,1022.70
2019-05-13T17:29:04.653Z,1022.68
2019-05-13T17:30:04.741Z,1022.74
2019-05-13T17:31:04.731Z,1022.64
2019-05-13T17:32:05.279Z,1022.63
2019-05-13T17:33:05.031Z,1022.64
2019-05-13T17:34:05.563Z,1022.60
2019-05-13T17:35:05.755Z,1022.69
2019-05-13T17:36:06.295Z,1022.64
2019-05-13T17:37:06.713Z,1022.62
2019-05-13T17:38:06.279Z,1022.72
2019-05-13T17:39:06.753Z,1022.74
2019-05-13T17:40:06.670Z,1022.78
2019-05-13T17:41:07.053Z,1022.74
2019-05-13T17:42:07.415Z,1022.74
